Time;durP1;ratioP1;P1;durP2;ratioP2;P2;SDS_P1;SDS_P2;PMS_P1;PMS_P2;Temp;Humidity;BMP_temperature;BMP_pressure;BME280_temperature;BME280_humidity;BME280_pressure;Samples;Min_cycle;Max_cycle;Signal;HPM_P1;HPM_P2
2021/08/11 00:01:14;;;;;;;;;2.67;2.67;;;;;;;;5093672;27;45847;-79
2021/08/11 00:03:40;;;;;;;;;4.25;3.00;;;;;;;;5077348;27;45629;-79
2021/08/11 00:06:05;;;;;;;;;3.00;3.00;;;;;;;;5094182;27;45437;-79
2021/08/11 00:08:31;;;;;;;;;1.67;1.67;;;;;;;;5093993;27;46448;-80
2021/08/11 00:10:56;;;;;;;;;3.00;2.67;;;;;;;;5093199;27;45446;-79
2021/08/11 00:13:21;;;;;;;;;4.75;2.00;;;;;;;;5080021;27;45524;-80
2021/08/11 00:15:46;;;;;;;;;2.00;2.00;;;;;;;;5075979;27;45397;-79
2021/08/11 00:18:12;;;;;;;;;2.33;2.33;;;;;;;;5095805;27;45509;-79
2021/08/11 00:20:37;;;;;;;;;4.25;2.50;;;;;;;;5095667;27;45403;-79
2021/08/11 00:23:03;;;;;;;;;3.00;1.00;;;;;;;;5096283;27;45354;-80
2021/08/11 00:25:28;;;;;;;;;2.75;2.75;;;;;;;;5096746;27;45456;-80
2021/08/11 00:27:54;;;;;;;;;2.25;2.25;;;;;;;;5096868;27;46007;-80
2021/08/11 00:30:19;;;;;;;;;1.75;1.75;;;;;;;;5096356;27;45436;-80
2021/08/11 00:32:44;;;;;;;;;3.00;3.00;;;;;;;;5095408;27;45494;-79
2021/08/11 00:35:10;;;;;;;;;4.33;4.00;;;;;;;;5096421;27;45416;-79
2021/08/11 00:37:35;;;;;;;;;4.50;4.00;;;;;;;;5096723;27;46295;-79
2021/08/11 00:40:00;;;;;;;;;3.33;3.00;;;;;;;;5087707;27;45432;-79
2021/08/11 00:42:26;;;;;;;;;3.00;2.00;;;;;;;;5096969;27;45421;-79
2021/08/11 00:44:51;;;;;;;;;3.00;3.00;;;;;;;;5096320;27;45322;-80
2021/08/11 00:47:17;;;;;;;;;2.00;2.00;;;;;;;;5094541;27;45448;-80
2021/08/11 00:49:42;;;;;;;;;2.50;2.25;;;;;;;;5095766;27;45737;-79
2021/08/11 00:52:07;;;;;;;;;2.25;2.25;;;;;;;;5095058;27;45517;-80
2021/08/11 00:54:34;;;;;;;;;3.00;2.00;;;;;;;;5096847;27;45430;-79
2021/08/11 00:56:59;;;;;;;;;2.25;2.25;;;;;;;;5077899;27;47088;-79
2021/08/11 00:59:25;;;;;;;;;3.50;2.00;;;;;;;;5095211;27;45364;-79
2021/08/11 01:01:52;;;;;;;;;2.00;2.00;;;;;;;;5077610;27;45497;-80
2021/08/11 01:04:17;;;;;;;;;3.00;3.00;;;;;;;;5071690;27;45450;-80
2021/08/11 01:06:43;;;;;;;;;2.00;2.00;;;;;;;;5096477;27;45382;-79
2021/08/11 01:09:11;;;;;;;;;2.00;2.00;;;;;;;;5092637;27;45416;-80
2021/08/11 01:11:36;;;;;;;;;3.00;3.00;;;;;;;;5073285;27;45650;-80
2021/08/11 01:14:02;;;;;;;;;2.75;2.75;;;;;;;;5070598;27;45518;-80
2021/08/11 01:16:28;;;;;;;;;4.00;2.00;;;;;;;;5094912;27;45448;-79
2021/08/11 01:18:53;;;;;;;;;2.00;2.00;;;;;;;;5089486;27;45449;-80
2021/08/11 01:21:18;;;;;;;;;3.00;3.00;;;;;;;;5096677;27;45307;-79
2021/08/11 01:23:55;;;;;;;;;4.67;3.00;;;;;;;;5095508;27;45749;-80
2021/08/11 01:26:39;;;;;;;;;2.50;2.50;;;;;;;;5076973;27;47635;-79
2021/08/11 01:29:12;;;;;;;;;7.75;2.00;;;;;;;;5085819;27;45776;-80
2021/08/11 01:31:51;;;;;;;;;2.00;2.00;;;;;;;;5095958;27;45622;-79
2021/08/11 01:34:24;;;;;;;;;5.00;3.00;;;;;;;;5093715;27;45571;-80
2021/08/11 01:36:53;;;;;;;;;2.00;2.00;;;;;;;;5092275;27;46014;-79
2021/08/11 01:39:24;;;;;;;;;4.00;3.00;;;;;;;;5095440;27;45432;-79
2021/08/11 01:41:52;;;;;;;;;3.00;3.00;;;;;;;;5077121;27;45373;-79
2021/08/11 01:44:20;;;;;;;;;2.00;2.00;;;;;;;;5095946;27;45335;-79
2021/08/11 01:46:46;;;;;;;;;3.25;3.25;;;;;;;;5085513;27;45443;-79
2021/08/11 01:49:13;;;;;;;;;3.25;2.75;;;;;;;;5077011;27;45407;-80
2021/08/11 01:51:41;;;;;;;;;3.50;2.00;;;;;;;;5096271;27;45409;-79
2021/08/11 01:54:10;;;;;;;;;3.00;3.00;;;;;;;;5075762;27;45367;-79
2021/08/11 01:56:38;;;;;;;;;3.25;2.25;;;;;;;;5094752;27;45509;-81
2021/08/11 01:59:05;;;;;;;;;2.25;2.25;;;;;;;;5095054;27;45381;-80
2021/08/11 02:01:31;;;;;;;;;2.50;2.50;;;;;;;;5095208;27;45458;-79
2021/08/11 02:03:56;;;;;;;;;2.00;2.00;;;;;;;;5096145;27;45341;-79
2021/08/11 02:06:21;;;;;;;;;2.00;2.00;;;;;;;;5092780;27;45350;-79
2021/08/11 02:08:47;;;;;;;;;2.50;2.00;;;;;;;;5094078;27;45387;-80
2021/08/11 02:11:13;;;;;;;;;4.75;2.50;;;;;;;;5094478;27;45382;-79
2021/08/11 02:13:39;;;;;;;;;2.00;2.00;;;;;;;;5095065;27;45465;-80
2021/08/11 02:16:04;;;;;;;;;1.50;1.50;;;;;;;;5092334;27;45603;-79
2021/08/11 02:18:29;;;;;;;;;2.00;2.00;;;;;;;;5077586;27;45410;-80
2021/08/11 02:20:54;;;;;;;;;2.00;1.00;;;;;;;;5088421;27;45363;-80
2021/08/11 02:23:20;;;;;;;;;2.00;2.00;;;;;;;;5094635;27;45842;-80
2021/08/11 02:25:54;;;;;;;;;2.75;2.00;;;;;;;;5094969;27;47291;-80
2021/08/11 02:28:22;;;;;;;;;2.50;2.50;;;;;;;;5071381;27;45918;-80
2021/08/11 02:31:10;;;;;;;;;3.75;2.00;;;;;;;;5084876;27;45386;-80
2021/08/11 02:33:51;;;;;;;;;2.25;2.25;;;;;;;;5075926;27;45469;-80
2021/08/11 02:36:28;;;;;;;;;2.25;1.00;;;;;;;;5093533;27;46861;-80
2021/08/11 02:38:55;;;;;;;;;1.75;1.75;;;;;;;;5095079;27;45777;-80
2021/08/11 02:41:23;;;;;;;;;2.00;1.00;;;;;;;;5089062;27;45593;-79
2021/08/11 02:43:57;;;;;;;;;1.75;1.50;;;;;;;;5091121;27;45296;-80
2021/08/11 02:46:24;;;;;;;;;1.50;1.50;;;;;;;;5089643;27;45425;-80
2021/08/11 02:48:54;;;;;;;;;1.75;1.75;;;;;;;;5095449;27;45401;-79
2021/08/11 02:51:19;;;;;;;;;2.00;2.00;;;;;;;;5076082;27;45322;-79
2021/08/11 02:53:45;;;;;;;;;3.00;1.25;;;;;;;;5075054;27;45584;-80
2021/08/11 02:56:12;;;;;;;;;3.50;3.00;;;;;;;;5074411;27;46953;-79
2021/08/11 02:58:38;;;;;;;;;3.00;1.00;;;;;;;;5094374;27;45671;-79
2021/08/11 03:01:03;;;;;;;;;0.50;0.50;;;;;;;;5094215;27;45435;-80
2021/08/11 03:03:29;;;;;;;;;4.00;1.00;;;;;;;;5093712;27;45616;-80
2021/08/11 03:05:54;;;;;;;;;2.00;2.00;;;;;;;;5093729;27;50746;-80
2021/08/11 03:08:20;;;;;;;;;2.00;2.00;;;;;;;;5088183;27;45343;-80
2021/08/11 03:10:45;;;;;;;;;2.00;2.00;;;;;;;;5091957;27;45579;-79
2021/08/11 03:13:12;;;;;;;;;2.50;2.50;;;;;;;;5075577;27;45574;-79
2021/08/11 03:15:39;;;;;;;;;2.00;2.00;;;;;;;;5095222;27;46124;-80
2021/08/11 03:18:04;;;;;;;;;1.25;1.25;;;;;;;;5076387;27;45521;-79
2021/08/11 03:20:31;;;;;;;;;4.00;2.00;;;;;;;;5093341;27;45353;-79
2021/08/11 03:22:56;;;;;;;;;1.25;1.25;;;;;;;;5093525;27;45401;-79
2021/08/11 03:25:21;;;;;;;;;1.33;1.00;;;;;;;;5093183;27;45431;-79
2021/08/11 03:27:47;;;;;;;;;2.00;2.00;;;;;;;;5089206;27;45359;-79
2021/08/11 03:30:12;;;;;;;;;3.00;2.00;;;;;;;;5093069;27;45529;-79
2021/08/11 03:32:37;;;;;;;;;3.50;2.00;;;;;;;;5093609;27;45493;-80
2021/08/11 03:35:03;;;;;;;;;2.00;2.00;;;;;;;;5094064;27;45524;-80
2021/08/11 03:37:28;;;;;;;;;3.25;3.25;;;;;;;;5091125;27;45351;-80
2021/08/11 03:39:55;;;;;;;;;3.33;3.33;;;;;;;;5089090;27;45410;-80
2021/08/11 03:42:20;;;;;;;;;3.00;2.25;;;;;;;;5093790;27;45469;-80
2021/08/11 03:44:45;;;;;;;;;4.00;1.00;;;;;;;;5093322;27;46112;-79
2021/08/11 03:47:11;;;;;;;;;2.00;2.00;;;;;;;;5093483;27;45462;-78
2021/08/11 03:49:36;;;;;;;;;4.00;1.00;;;;;;;;5093754;27;45430;-80
2021/08/11 03:52:01;;;;;;;;;2.00;2.00;;;;;;;;5092700;27;45453;-78
2021/08/11 03:54:26;;;;;;;;;4.00;2.25;;;;;;;;5094177;27;45303;-78
2021/08/11 03:56:51;;;;;;;;;3.33;3.00;;;;;;;;5093285;27;45420;-80
2021/08/11 03:59:17;;;;;;;;;5.33;2.00;;;;;;;;5091662;27;45581;-81
2021/08/11 04:01:42;;;;;;;;;2.25;2.25;;;;;;;;5092835;27;45338;-80
2021/08/11 04:04:08;;;;;;;;;2.00;2.00;;;;;;;;5093147;27;46028;-80
2021/08/11 04:06:33;;;;;;;;;3.25;2.00;;;;;;;;5094372;27;45335;-80
2021/08/11 04:08:58;;;;;;;;;1.33;1.33;;;;;;;;5093740;27;45515;-81
2021/08/11 04:11:23;;;;;;;;;5.00;2.00;;;;;;;;5092729;27;45344;-80
2021/08/11 04:13:48;;;;;;;;;2.00;2.00;;;;;;;;5093196;27;45664;-80
2021/08/11 04:16:14;;;;;;;;;1.00;1.00;;;;;;;;5092136;27;45505;-80
2021/08/11 04:18:39;;;;;;;;;2.50;1.75;;;;;;;;5075143;27;45513;-79
2021/08/11 04:21:04;;;;;;;;;4.00;2.33;;;;;;;;5091918;27;46648;-80
2021/08/11 04:23:30;;;;;;;;;4.00;3.00;;;;;;;;5091796;27;45950;-80
2021/08/11 04:25:55;;;;;;;;;3.00;3.00;;;;;;;;5092875;27;45507;-78
2021/08/11 04:28:20;;;;;;;;;4.00;3.00;;;;;;;;5074598;27;45374;-80
2021/08/11 04:30:45;;;;;;;;;4.00;3.00;;;;;;;;5099492;27;45442;-78
2021/08/11 04:33:11;;;;;;;;;3.00;2.33;;;;;;;;5088718;27;46332;-78
2021/08/11 04:35:37;;;;;;;;;3.50;2.00;;;;;;;;5096103;27;45501;-80
2021/08/11 04:38:02;;;;;;;;;3.00;2.00;;;;;;;;5096881;27;45396;-80
2021/08/11 04:40:27;;;;;;;;;2.00;2.00;;;;;;;;5094867;27;45824;-80
2021/08/11 04:42:52;;;;;;;;;4.33;3.00;;;;;;;;5077801;27;47519;-78
2021/08/11 04:45:18;;;;;;;;;3.25;1.25;;;;;;;;5095104;27;45559;-80
2021/08/11 04:47:43;;;;;;;;;3.00;2.75;;;;;;;;5095994;27;45759;-80
2021/08/11 04:50:09;;;;;;;;;1.25;1.25;;;;;;;;5096700;27;45401;-80
2021/08/11 04:52:34;;;;;;;;;2.00;2.00;;;;;;;;5095467;27;45991;-78
2021/08/11 04:55:00;;;;;;;;;2.00;2.00;;;;;;;;5092435;27;45569;-80
2021/08/11 04:57:26;;;;;;;;;2.50;2.50;;;;;;;;5097331;27;45451;-79
2021/08/11 04:59:51;;;;;;;;;2.00;2.00;;;;;;;;5073295;27;45881;-81
2021/08/11 05:02:16;;;;;;;;;3.00;3.00;;;;;;;;5091536;27;45370;-80
2021/08/11 05:04:41;;;;;;;;;1.67;1.67;;;;;;;;5095444;27;45594;-80
2021/08/11 05:07:06;;;;;;;;;3.33;2.00;;;;;;;;5069843;27;45551;-80
2021/08/11 05:09:32;;;;;;;;;3.00;3.00;;;;;;;;5095152;27;45492;-80
2021/08/11 05:11:57;;;;;;;;;1.50;1.50;;;;;;;;5096174;27;45635;-80
2021/08/11 05:14:23;;;;;;;;;2.00;2.00;;;;;;;;5095493;27;45704;-79
2021/08/11 05:16:48;;;;;;;;;2.50;1.50;;;;;;;;5076674;27;45585;-80
2021/08/11 05:19:13;;;;;;;;;1.00;1.00;;;;;;;;5096254;27;46408;-80
2021/08/11 05:21:38;;;;;;;;;3.00;3.00;;;;;;;;5094611;27;45485;-80
2021/08/11 05:24:04;;;;;;;;;1.33;1.33;;;;;;;;5077661;27;45489;-80
2021/08/11 05:26:29;;;;;;;;;1.75;1.75;;;;;;;;5096565;27;45784;-80
2021/08/11 05:28:55;;;;;;;;;3.00;2.00;;;;;;;;5077085;27;45596;-79
2021/08/11 05:31:20;;;;;;;;;1.75;1.75;;;;;;;;5095988;27;45408;-80
2021/08/11 05:33:45;;;;;;;;;2.00;2.00;;;;;;;;5094123;27;45535;-80
2021/08/11 05:36:11;;;;;;;;;2.67;2.00;;;;;;;;5095343;27;45391;-82
2021/08/11 05:38:37;;;;;;;;;2.00;2.00;;;;;;;;5095737;27;45474;-85
2021/08/11 05:41:02;;;;;;;;;3.00;2.00;;;;;;;;5076303;27;49115;-85
2021/08/11 05:43:27;;;;;;;;;3.00;1.00;;;;;;;;5094269;27;45480;-84
2021/08/11 05:45:52;;;;;;;;;1.33;1.00;;;;;;;;5089711;27;45257;-83
2021/08/11 05:48:21;;;;;;;;;2.67;2.00;;;;;;;;5095523;27;45580;-84
2021/08/11 05:50:46;;;;;;;;;1.25;1.25;;;;;;;;5095316;27;45719;-83
2021/08/11 05:53:12;;;;;;;;;2.00;2.00;;;;;;;;5096452;27;45345;-84
2021/08/11 05:55:37;;;;;;;;;2.00;1.00;;;;;;;;5093193;27;45558;-84
2021/08/11 05:58:02;;;;;;;;;4.00;2.00;;;;;;;;5078710;27;45414;-85
2021/08/11 06:00:27;;;;;;;;;0.67;0.67;;;;;;;;5075919;27;46589;-82
2021/08/11 06:02:52;;;;;;;;;2.00;2.00;;;;;;;;5064011;27;45505;-80
2021/08/11 06:05:18;;;;;;;;;1.67;1.67;;;;;;;;5066054;27;45595;-81
2021/08/11 06:07:43;;;;;;;;;1.00;1.00;;;;;;;;5092676;27;46792;-81
2021/08/11 06:10:09;;;;;;;;;2.00;2.00;;;;;;;;5095031;27;46424;-83
2021/08/11 06:12:34;;;;;;;;;1.00;1.00;;;;;;;;5076834;27;45450;-84
2021/08/11 06:14:59;;;;;;;;;1.75;1.75;;;;;;;;5092936;27;45392;-82
2021/08/11 06:17:24;;;;;;;;;2.00;1.00;;;;;;;;5075846;27;45395;-83
2021/08/11 06:19:50;;;;;;;;;2.75;2.00;;;;;;;;5092531;27;46351;-89
2021/08/11 06:22:16;;;;;;;;;3.00;2.00;;;;;;;;5083409;27;45425;-83
2021/08/11 06:24:41;;;;;;;;;1.50;1.25;;;;;;;;5075699;27;45645;-86
2021/08/11 06:27:06;;;;;;;;;2.00;2.00;;;;;;;;5092273;27;45492;-86
2021/08/11 06:29:32;;;;;;;;;1.50;1.50;;;;;;;;5090758;27;45547;-85
2021/08/11 06:31:57;;;;;;;;;4.25;2.00;;;;;;;;5091655;27;45615;-84
2021/08/11 06:34:24;;;;;;;;;1.00;1.00;;;;;;;;5088331;27;45705;-83
2021/08/11 06:36:49;;;;;;;;;1.75;0.75;;;;;;;;5087708;27;45751;-83
2021/08/11 06:39:15;;;;;;;;;1.75;1.75;;;;;;;;5090461;27;46743;-82
2021/08/11 06:41:40;;;;;;;;;0.67;0.67;;;;;;;;5068946;27;45810;-82
2021/08/11 06:44:05;;;;;;;;;1.33;1.33;;;;;;;;5068850;27;45570;-81
2021/08/11 06:46:30;;;;;;;;;1.00;1.00;;;;;;;;5090855;27;45530;-84
2021/08/11 06:48:56;;;;;;;;;1.33;1.33;;;;;;;;5095089;27;45670;-82
2021/08/11 06:51:21;;;;;;;;;1.00;1.00;;;;;;;;5076420;27;45948;-86
2021/08/11 06:53:46;;;;;;;;;2.00;1.00;;;;;;;;5070682;27;45681;-85
2021/08/11 06:56:11;;;;;;;;;2.33;1.33;;;;;;;;5092007;27;45481;-84
2021/08/11 06:58:37;;;;;;;;;2.00;2.00;;;;;;;;5094396;27;45464;-84
2021/08/11 07:01:03;;;;;;;;;2.00;1.25;;;;;;;;5094279;27;45623;-86
2021/08/11 07:03:28;;;;;;;;;1.00;1.00;;;;;;;;5093546;27;45486;-85
2021/08/11 07:05:53;;;;;;;;;1.00;1.00;;;;;;;;5091809;27;45415;-84
2021/08/11 07:08:20;;;;;;;;;2.25;2.00;;;;;;;;5085310;27;45626;-85
2021/08/11 07:10:45;;;;;;;;;1.00;1.00;;;;;;;;5094627;27;45711;-82
2021/08/11 07:13:11;;;;;;;;;2.75;2.00;;;;;;;;5094104;27;45550;-82
2021/08/11 07:15:36;;;;;;;;;1.33;1.00;;;;;;;;5094279;27;45450;-84
2021/08/11 07:18:01;;;;;;;;;2.00;2.00;;;;;;;;5093130;27;45512;-82
2021/08/11 07:20:29;;;;;;;;;1.00;1.00;;;;;;;;5093527;27;45413;-84
2021/08/11 07:22:55;;;;;;;;;3.25;1.00;;;;;;;;5075661;27;45501;-82
2021/08/11 07:25:21;;;;;;;;;3.50;2.75;;;;;;;;5073208;27;45487;-85
2021/08/11 07:27:46;;;;;;;;;2.25;1.75;;;;;;;;5075371;27;48458;-83
2021/08/11 07:30:12;;;;;;;;;2.33;1.33;;;;;;;;5092414;27;45707;-85
2021/08/11 07:32:37;;;;;;;;;2.00;1.50;;;;;;;;5074934;27;45546;-83
2021/08/11 07:35:03;;;;;;;;;1.00;1.00;;;;;;;;5093943;27;45446;-85
2021/08/11 07:37:28;;;;;;;;;1.00;1.00;;;;;;;;5092801;27;45575;-83
2021/08/11 07:39:54;;;;;;;;;1.33;1.33;;;;;;;;5087861;27;45365;-84
2021/08/11 07:42:19;;;;;;;;;1.75;1.75;;;;;;;;5093624;27;45527;-86
2021/08/11 07:44:45;;;;;;;;;2.00;1.00;;;;;;;;5073076;27;45528;-79
2021/08/11 07:47:10;;;;;;;;;2.00;2.00;;;;;;;;5092811;27;45528;-83
2021/08/11 07:49:35;;;;;;;;;2.00;2.00;;;;;;;;5091760;27;45676;-84
2021/08/11 07:52:00;;;;;;;;;2.00;2.00;;;;;;;;5092682;27;45412;-81
2021/08/11 07:54:25;;;;;;;;;1.00;1.00;;;;;;;;5092979;27;45362;-84
2021/08/11 07:56:51;;;;;;;;;5.00;1.00;;;;;;;;5093242;27;45396;-81
2021/08/11 07:59:16;;;;;;;;;5.00;2.00;;;;;;;;5092919;27;45461;-82
2021/08/11 08:01:41;;;;;;;;;3.00;1.33;;;;;;;;5092329;27;45561;-85
2021/08/11 08:04:06;;;;;;;;;2.50;1.50;;;;;;;;5092269;27;45497;-83
2021/08/11 08:06:32;;;;;;;;;3.00;2.00;;;;;;;;5091798;27;46333;-82
2021/08/11 08:08:57;;;;;;;;;1.00;1.00;;;;;;;;5094804;27;45591;-82
2021/08/11 08:11:22;;;;;;;;;2.00;2.00;;;;;;;;5096576;27;45350;-82
2021/08/11 08:13:48;;;;;;;;;3.00;3.00;;;;;;;;5096047;27;45542;-82
2021/08/11 08:16:14;;;;;;;;;4.50;2.25;;;;;;;;5096490;27;45813;-82
2021/08/11 08:18:40;;;;;;;;;1.25;1.25;;;;;;;;5096949;27;45642;-87
2021/08/11 08:21:05;;;;;;;;;4.00;2.00;;;;;;;;5077563;27;45498;-81
2021/08/11 08:23:30;;;;;;;;;3.00;2.50;;;;;;;;5095563;27;45430;-82
2021/08/11 08:25:56;;;;;;;;;1.25;1.25;;;;;;;;5094753;27;45552;-85
2021/08/11 08:28:21;;;;;;;;;3.50;2.00;;;;;;;;5095616;27;45352;-85
2021/08/11 08:30:47;;;;;;;;;2.75;2.00;;;;;;;;5097726;27;45400;-86
2021/08/11 08:33:12;;;;;;;;;4.50;2.00;;;;;;;;5096610;27;45592;-85
2021/08/11 08:35:37;;;;;;;;;4.00;3.00;;;;;;;;5096564;27;46341;-88
2021/08/11 08:38:04;;;;;;;;;1.67;1.67;;;;;;;;5097498;27;45584;-88
2021/08/11 08:40:31;;;;;;;;;2.00;2.00;;;;;;;;5096325;27;45417;-84
2021/08/11 08:42:56;;;;;;;;;3.50;2.00;;;;;;;;5096109;27;45421;-83
2021/08/11 08:45:21;;;;;;;;;3.33;2.33;;;;;;;;5095935;27;45848;-83
2021/08/11 08:47:47;;;;;;;;;2.00;2.00;;;;;;;;5092872;27;45608;-83
2021/08/11 08:50:15;;;;;;;;;3.00;3.00;;;;;;;;5093098;27;45335;-82
2021/08/11 08:52:43;;;;;;;;;4.00;2.75;;;;;;;;5094578;27;45387;-85
2021/08/11 08:55:08;;;;;;;;;4.25;3.00;;;;;;;;5095646;27;46216;-83
2021/08/11 08:57:35;;;;;;;;;3.50;2.25;;;;;;;;5096652;27;45494;-82
2021/08/11 09:00:03;;;;;;;;;2.00;2.00;;;;;;;;5094320;27;45499;-84
2021/08/11 09:02:28;;;;;;;;;4.00;3.00;;;;;;;;5095449;27;45484;-83
2021/08/11 09:04:53;;;;;;;;;4.00;2.33;;;;;;;;5094746;27;45524;-87
2021/08/11 09:07:19;;;;;;;;;3.00;3.00;;;;;;;;5076894;27;45619;-83
2021/08/11 09:09:45;;;;;;;;;3.00;3.00;;;;;;;;5096526;27;45435;-86
2021/08/11 09:12:12;;;;;;;;;2.25;2.25;;;;;;;;5074495;27;45677;-81
2021/08/11 09:14:37;;;;;;;;;3.00;3.00;;;;;;;;5072856;27;46806;-85
2021/08/11 09:17:03;;;;;;;;;3.00;2.75;;;;;;;;5076391;27;45602;-83
2021/08/11 09:19:38;;;;;;;;;3.25;2.50;;;;;;;;5092501;27;45422;-82
2021/08/11 09:22:08;;;;;;;;;3.00;3.00;;;;;;;;5089957;27;45463;-82
2021/08/11 09:24:36;;;;;;;;;3.00;2.75;;;;;;;;5075135;27;46174;-82
2021/08/11 09:27:20;;;;;;;;;4.00;2.25;;;;;;;;5092669;27;45521;-83
2021/08/11 09:30:01;;;;;;;;;2.00;2.00;;;;;;;;5093365;27;45467;-84
2021/08/11 09:32:26;;;;;;;;;1.75;1.75;;;;;;;;5088901;27;45896;-83
2021/08/11 09:34:54;;;;;;;;;3.00;3.00;;;;;;;;5094242;27;46381;-83
2021/08/11 09:37:35;;;;;;;;;5.00;3.75;;;;;;;;5092274;27;45367;-82
2021/08/11 09:40:08;;;;;;;;;2.75;2.75;;;;;;;;5092291;27;45390;-82
2021/08/11 09:42:33;;;;;;;;;3.25;2.25;;;;;;;;5091190;27;45403;-82
2021/08/11 09:44:59;;;;;;;;;3.00;3.00;;;;;;;;5088632;27;45589;-82
2021/08/11 09:47:24;;;;;;;;;3.00;3.00;;;;;;;;5092559;27;45944;-82
2021/08/11 09:50:06;;;;;;;;;2.00;2.00;;;;;;;;5092843;27;45536;-82
2021/08/11 09:52:45;;;;;;;;;4.25;3.00;;;;;;;;5080481;27;45556;-81
2021/08/11 09:55:10;;;;;;;;;3.00;3.00;;;;;;;;5069469;27;47533;-83
2021/08/11 09:57:35;;;;;;;;;3.00;3.00;;;;;;;;5093389;27;45279;-84
2021/08/11 10:00:00;;;;;;;;;4.33;3.33;;;;;;;;5077211;27;45615;-83
2021/08/11 10:02:26;;;;;;;;;2.75;2.75;;;;;;;;5091681;27;45851;-86
2021/08/11 10:04:51;;;;;;;;;3.25;1.25;;;;;;;;5069906;27;48005;-82
2021/08/11 10:07:17;;;;;;;;;3.25;3.25;;;;;;;;5092802;27;45756;-86
2021/08/11 10:09:42;;;;;;;;;6.25;3.25;;;;;;;;5094910;27;45346;-86
2021/08/11 10:12:25;;;;;;;;;3.25;2.75;;;;;;;;5072845;27;45520;-86
2021/08/11 10:14:50;;;;;;;;;2.00;2.00;;;;;;;;5093337;27;45543;-86
2021/08/11 10:17:16;;;;;;;;;4.25;3.50;;;;;;;;5072895;27;45504;-86
2021/08/11 10:19:41;;;;;;;;;5.00;3.75;;;;;;;;5088655;27;45476;-84
2021/08/11 10:22:19;;;;;;;;;5.00;3.00;;;;;;;;5084959;27;45362;-84
2021/08/11 10:24:45;;;;;;;;;8.25;4.25;;;;;;;;5071865;27;46746;-84
2021/08/11 10:27:10;;;;;;;;;4.00;4.00;;;;;;;;5073846;27;45478;-83
2021/08/11 10:29:36;;;;;;;;;5.75;4.00;;;;;;;;5090846;27;45783;-85
2021/08/11 10:34:39;;;;;;;;;6.00;3.50;;;;;;;;4846167;22;47804;-83
2021/08/11 10:37:05;;;;;;;;;4.00;4.00;;;;;;;;4988615;27;45397;-81
2021/08/11 10:39:31;;;;;;;;;3.50;3.50;;;;;;;;5028269;27;45505;-84
2021/08/11 10:42:00;;;;;;;;;4.00;4.00;;;;;;;;4998310;28;45509;-84
2021/08/11 10:47:31;;;;;;;;;3.00;3.00;;;;;;;;4988714;27;45908;-85
2021/08/11 10:52:33;;;;;;;;;3.00;2.25;;;;;;;;4618332;22;48551;-84
2021/08/11 10:55:00;;;;;;;;;4.50;3.25;;;;;;;;4986503;27;45994;-83
2021/08/11 10:57:34;;;;;;;;;4.25;4.00;;;;;;;;4985208;27;45821;-84
2021/08/11 11:00:00;;;;;;;;;3.25;3.25;;;;;;;;4988369;27;45280;-83
2021/08/11 11:02:37;;;;;;;;;4.50;4.00;;;;;;;;4987638;28;45313;-85
2021/08/11 11:05:04;;;;;;;;;5.00;3.50;;;;;;;;4986068;28;45684;-84
2021/08/11 11:07:29;;;;;;;;;4.50;4.00;;;;;;;;4991527;28;45520;-86
2021/08/11 11:10:14;;;;;;;;;3.00;3.00;;;;;;;;4978909;28;45465;-84
2021/08/11 11:12:39;;;;;;;;;3.75;3.75;;;;;;;;4986720;28;45628;-84
2021/08/11 11:15:05;;;;;;;;;3.00;3.00;;;;;;;;4988390;28;45858;-83
2021/08/11 11:17:30;;;;;;;;;5.75;5.25;;;;;;;;4990205;27;45523;-89
2021/08/11 11:20:08;;;;;;;;;6.50;6.50;;;;;;;;4975438;28;45816;-88
2021/08/11 11:22:37;;;;;;;;;6.00;5.50;;;;;;;;4988908;28;45614;-88
2021/08/11 11:25:03;;;;;;;;;5.25;3.50;;;;;;;;4978279;27;47459;-89
2021/08/11 11:27:37;;;;;;;;;10.00;8.00;;;;;;;;5042880;27;45804;-88
2021/08/11 11:30:03;;;;;;;;;8.50;8.00;;;;;;;;4990142;28;45406;-88
2021/08/11 11:32:28;;;;;;;;;4.50;3.25;;;;;;;;5051183;28;45313;-85
2021/08/11 11:35:13;;;;;;;;;4.00;4.00;;;;;;;;5005470;28;46982;-86
2021/08/11 11:37:38;;;;;;;;;5.50;4.75;;;;;;;;4989565;28;45689;-86
2021/08/11 11:40:04;;;;;;;;;3.50;3.50;;;;;;;;4972705;28;45437;-86
2021/08/11 11:42:30;;;;;;;;;2.75;2.75;;;;;;;;4987799;28;45440;-86
2021/08/11 11:44:59;;;;;;;;;5.00;4.00;;;;;;;;4990530;28;45812;-87
2021/08/11 11:47:40;;;;;;;;;1.75;1.75;;;;;;;;4990237;28;45528;-87
2021/08/11 11:52:49;;;;;;;;;4.00;3.00;;;;;;;;4987631;28;45568;-85
2021/08/11 11:55:18;;;;;;;;;2.25;2.25;;;;;;;;4986978;28;46132;-85
2021/08/11 11:57:44;;;;;;;;;2.75;2.75;;;;;;;;4989331;28;45504;-87
2021/08/11 12:00:16;;;;;;;;;3.25;3.25;;;;;;;;4988200;27;45544;-85
2021/08/11 12:02:42;;;;;;;;;4.00;4.00;;;;;;;;4991064;28;45366;-83
2021/08/11 12:05:08;;;;;;;;;12.00;12.00;;;;;;;;4985603;28;45477;-86
2021/08/11 12:07:33;;;;;;;;;4.25;3.25;;;;;;;;4981183;28;45910;-80
2021/08/11 12:10:00;;;;;;;;;80.25;74.00;;;;;;;;4989807;28;45576;-81
2021/08/11 12:12:25;;;;;;;;;10.00;8.25;;;;;;;;4987570;28;45502;-88
2021/08/11 12:14:50;;;;;;;;;47.50;37.75;;;;;;;;4980391;28;45422;-84
2021/08/11 12:17:45;;;;;;;;;11.00;9.25;;;;;;;;4980990;28;45477;-84
2021/08/11 12:20:29;;;;;;;;;3.00;2.00;;;;;;;;4974574;28;45656;-84
2021/08/11 12:22:54;;;;;;;;;2.00;2.00;;;;;;;;4997251;27;45571;-86
2021/08/11 12:25:20;;;;;;;;;1.75;1.75;;;;;;;;4986470;28;45440;-84
2021/08/11 12:28:24;;;;;;;;;3.75;3.00;;;;;;;;4986054;28;45367;-81
2021/08/11 12:30:58;;;;;;;;;2.50;2.50;;;;;;;;4891873;28;45595;-83
2021/08/11 12:33:23;;;;;;;;;2.50;2.50;;;;;;;;4887223;28;46033;-83
2021/08/11 12:35:53;;;;;;;;;3.00;2.50;;;;;;;;4898835;28;46241;-84
2021/08/11 12:38:25;;;;;;;;;3.50;3.50;;;;;;;;4888993;29;45777;-83
2021/08/11 12:40:50;;;;;;;;;9.75;9.75;;;;;;;;4874238;28;45512;-83
2021/08/11 12:43:15;;;;;;;;;4.00;4.00;;;;;;;;4890150;28;45488;-83
2021/08/11 12:45:51;;;;;;;;;2.00;2.00;;;;;;;;4892685;28;46119;-84
2021/08/11 12:48:30;;;;;;;;;2.00;2.00;;;;;;;;4890258;28;45530;-83
2021/08/11 12:50:56;;;;;;;;;4.00;4.00;;;;;;;;4916495;28;45948;-83
2021/08/11 12:53:22;;;;;;;;;2.00;2.00;;;;;;;;4896102;28;45816;-82
2021/08/11 12:55:48;;;;;;;;;2.75;2.00;;;;;;;;4891501;28;45566;-82
2021/08/11 12:58:14;;;;;;;;;2.00;2.00;;;;;;;;4890174;28;45952;-82
2021/08/11 13:00:40;;;;;;;;;3.00;2.25;;;;;;;;4900455;28;45357;-82
2021/08/11 13:03:07;;;;;;;;;2.00;2.00;;;;;;;;4984771;28;45632;-80
2021/08/11 13:05:32;;;;;;;;;4.75;3.00;;;;;;;;4984785;27;45406;-82
2021/08/11 13:08:03;;;;;;;;;3.00;2.00;;;;;;;;4988300;27;45604;-83
2021/08/11 13:10:34;;;;;;;;;1.25;1.25;;;;;;;;4989417;28;45460;-83
2021/08/11 13:13:19;;;;;;;;;0.50;0.50;;;;;;;;4985366;27;45499;-83
2021/08/11 13:15:44;;;;;;;;;2.50;2.50;;;;;;;;4988265;28;46536;-82
2021/08/11 13:18:10;;;;;;;;;2.00;2.00;;;;;;;;4991940;28;45486;-83
2021/08/11 13:20:38;;;;;;;;;2.67;2.67;;;;;;;;4984819;28;45391;-83
2021/08/11 13:23:05;;;;;;;;;2.00;1.50;;;;;;;;4980410;28;45576;-83
2021/08/11 13:25:30;;;;;;;;;1.00;1.00;;;;;;;;4980439;28;45699;-81
2021/08/11 13:28:00;;;;;;;;;2.25;2.00;;;;;;;;4985196;28;45675;-82
2021/08/11 13:30:25;;;;;;;;;2.75;1.50;;;;;;;;4976359;28;45484;-83
2021/08/11 13:32:51;;;;;;;;;0.50;0.50;;;;;;;;4989758;27;45570;-83
2021/08/11 13:35:17;;;;;;;;;2.00;2.00;;;;;;;;4986885;27;46244;-83
2021/08/11 13:37:42;;;;;;;;;2.00;2.00;;;;;;;;4988006;28;45508;-84
2021/08/11 13:40:09;;;;;;;;;2.00;2.00;;;;;;;;4991339;28;45466;-83
2021/08/11 13:42:34;;;;;;;;;1.00;1.00;;;;;;;;4987971;28;45401;-83
2021/08/11 13:44:59;;;;;;;;;2.67;2.67;;;;;;;;4990519;28;45723;-83
2021/08/11 13:47:25;;;;;;;;;1.00;1.00;;;;;;;;4986805;28;45534;-84
2021/08/11 13:49:52;;;;;;;;;2.25;2.25;;;;;;;;4988908;28;45503;-84
2021/08/11 13:52:17;;;;;;;;;2.00;2.00;;;;;;;;4984697;28;45355;-82
2021/08/11 13:54:42;;;;;;;;;2.00;2.00;;;;;;;;4981865;27;45513;-84
2021/08/11 13:57:07;;;;;;;;;1.25;1.25;;;;;;;;4960350;28;45709;-83
2021/08/11 13:59:33;;;;;;;;;2.00;2.00;;;;;;;;4976157;28;45364;-82
2021/08/11 14:01:58;;;;;;;;;1.00;1.00;;;;;;;;4974412;28;45524;-81
2021/08/11 14:04:23;;;;;;;;;2.00;2.00;;;;;;;;4978462;28;45824;-81
2021/08/11 14:06:49;;;;;;;;;2.67;2.33;;;;;;;;4974090;28;45662;-82
2021/08/11 14:09:14;;;;;;;;;4.00;2.00;;;;;;;;4974619;28;45402;-86
2021/08/11 14:11:39;;;;;;;;;4.00;3.75;;;;;;;;4975841;28;45506;-85
2021/08/11 14:14:05;;;;;;;;;2.00;2.00;;;;;;;;4975612;28;47032;-84
2021/08/11 14:16:31;;;;;;;;;4.00;2.00;;;;;;;;4973324;28;45685;-83
2021/08/11 14:18:56;;;;;;;;;3.00;1.00;;;;;;;;4977142;28;45497;-80
2021/08/11 14:21:21;;;;;;;;;3.00;3.00;;;;;;;;4977319;28;45452;-84
2021/08/11 14:23:46;;;;;;;;;4.25;3.00;;;;;;;;4980648;28;46703;-84
2021/08/11 14:26:12;;;;;;;;;3.00;3.00;;;;;;;;4971779;28;45454;-84
2021/08/11 14:28:37;;;;;;;;;5.00;2.00;;;;;;;;4984652;28;45566;-82
2021/08/11 14:31:02;;;;;;;;;2.67;2.67;;;;;;;;4975787;28;45522;-81
2021/08/11 14:33:27;;;;;;;;;3.50;3.00;;;;;;;;4973658;28;46064;-81
2021/08/11 14:35:53;;;;;;;;;4.00;2.50;;;;;;;;4977512;28;45886;-85
2021/08/11 14:38:18;;;;;;;;;2.75;2.75;;;;;;;;4967763;28;45616;-84
2021/08/11 14:40:43;;;;;;;;;3.00;3.00;;;;;;;;4973511;28;45528;-81
2021/08/11 14:43:09;;;;;;;;;2.67;2.67;;;;;;;;4978825;28;45861;-83
2021/08/11 14:45:34;;;;;;;;;2.50;2.50;;;;;;;;4976785;27;45650;-80
2021/08/11 14:48:00;;;;;;;;;3.00;3.00;;;;;;;;4979909;28;45684;-83
2021/08/11 14:50:25;;;;;;;;;5.50;3.00;;;;;;;;4978590;28;45497;-81
2021/08/11 14:52:50;;;;;;;;;2.25;2.25;;;;;;;;4976664;28;46245;-83